sensor_id;sensor_type;location;lat;lon;timestamp;pressure;altitude;pressure_sealevel;temperature;humidity
49341;BME280;35209;51.050;13.678;2022-09-17T00:02:58;98905.38;;;11.15;68.43
49341;BME280;35209;51.050;13.678;2022-09-17T00:07:59;98904.00;;;11.07;68.66
49341;BME280;35209;51.050;13.678;2022-09-17T00:13:01;98901.13;;;11.12;68.81
49341;BME280;35209;51.050;13.678;2022-09-17T00:18:03;98898.88;;;11.04;68.90
49341;BME280;35209;51.050;13.678;2022-09-17T00:23:05;98908.41;;;11.07;68.99
49341;BME280;35209;51.050;13.678;2022-09-17T00:28:07;98912.34;;;11.16;68.63
49341;BME280;35209;51.050;13.678;2022-09-17T00:33:14;98908.69;;;11.18;68.97
49341;BME280;35209;51.050;13.678;2022-09-17T00:38:16;98909.22;;;11.25;68.49
49341;BME280;35209;51.050;13.678;2022-09-17T00:43:48;98911.31;;;11.18;68.71
49341;BME280;35209;51.050;13.678;2022-09-17T00:48:52;98909.06;;;11.28;68.79
49341;BME280;35209;51.050;13.678;2022-09-17T00:53:54;98913.84;;;11.20;69.46
49341;BME280;35209;51.050;13.678;2022-09-17T00:58:56;98913.84;;;11.20;69.57
49341;BME280;35209;51.050;13.678;2022-09-17T01:03:59;98910.56;;;11.16;69.56
49341;BME280;35209;51.050;13.678;2022-09-17T01:24:47;98889.44;;;11.18;69.57
49341;BME280;35209;51.050;13.678;2022-09-17T01:30:04;98884.78;;;11.23;69.66
49341;BME280;35209;51.050;13.678;2022-09-17T01:35:33;98890.13;;;11.21;69.75
49341;BME280;35209;51.050;13.678;2022-09-17T01:40:50;98901.97;;;11.13;70.78
49341;BME280;35209;51.050;13.678;2022-09-17T01:46:17;98895.53;;;11.18;70.38
49341;BME280;35209;51.050;13.678;2022-09-17T01:51:23;98906.75;;;11.22;69.92
49341;BME280;35209;51.050;13.678;2022-09-17T01:56:31;98913.84;;;11.20;70.32
49341;BME280;35209;51.050;13.678;2022-09-17T02:01:35;98911.69;;;11.28;70.17
49341;BME280;35209;51.050;13.678;2022-09-17T02:06:43;98915.72;;;11.18;70.70
49341;BME280;35209;51.050;13.678;2022-09-17T02:11:51;98918.03;;;11.24;70.08
49341;BME280;35209;51.050;13.678;2022-09-17T02:17:07;98924.78;;;11.29;70.27
49341;BME280;35209;51.050;13.678;2022-09-17T02:22:25;98919.50;;;11.29;70.18
49341;BME280;35209;51.050;13.678;2022-09-17T02:27:34;98921.00;;;11.18;71.27
49341;BME280;35209;51.050;13.678;2022-09-17T02:32:38;98916.50;;;11.20;70.88
49341;BME280;35209;51.050;13.678;2022-09-17T02:37:40;98915.19;;;11.11;72.08
49341;BME280;35209;51.050;13.678;2022-09-17T02:42:58;98905.38;;;11.15;71.83
49341;BME280;35209;51.050;13.678;2022-09-17T02:53:34;98898.06;;;11.20;71.99
49341;BME280;35209;51.050;13.678;2022-09-17T02:59:08;98901.66;;;11.19;72.24
49341;BME280;35209;51.050;13.678;2022-09-17T03:04:14;98899.59;;;11.08;73.19
49341;BME280;35209;51.050;13.678;2022-09-17T03:09:17;98900.59;;;11.05;74.01
49341;BME280;35209;51.050;13.678;2022-09-17T03:14:19;98899.50;;;11.09;73.83
49341;BME280;35209;51.050;13.678;2022-09-17T03:19:21;98906.69;;;11.06;73.89
49341;BME280;35209;51.050;13.678;2022-09-17T03:24:22;98904.59;;;11.13;74.18
49341;BME280;35209;51.050;13.678;2022-09-17T03:29:24;98924.22;;;11.23;73.60
49341;BME280;35209;51.050;13.678;2022-09-17T03:34:26;98923.06;;;11.28;73.81
49341;BME280;35209;51.050;13.678;2022-09-17T03:39:28;98928.66;;;11.22;74.49
49341;BME280;35209;51.050;13.678;2022-09-17T03:44:30;98927.09;;;11.18;74.96
49341;BME280;35209;51.050;13.678;2022-09-17T03:49:31;98925.41;;;11.17;75.27
49341;BME280;35209;51.050;13.678;2022-09-17T03:54:33;98927.00;;;11.20;75.34
49341;BME280;35209;51.050;13.678;2022-09-17T03:59:35;98928.97;;;11.16;75.71
49341;BME280;35209;51.050;13.678;2022-09-17T04:04:36;98936.03;;;11.16;76.03
49341;BME280;35209;51.050;13.678;2022-09-17T04:09:38;98932.59;;;11.14;77.02
49341;BME280;35209;51.050;13.678;2022-09-17T04:14:39;98933.69;;;11.09;77.84
49341;BME280;35209;51.050;13.678;2022-09-17T04:19:41;98943.03;;;10.98;78.78
49341;BME280;35209;51.050;13.678;2022-09-17T04:24:42;98940.41;;;10.98;79.98
49341;BME280;35209;51.050;13.678;2022-09-17T04:29:44;98926.59;;;10.94;80.88
49341;BME280;35209;51.050;13.678;2022-09-17T04:34:46;98936.50;;;10.89;81.75
49341;BME280;35209;51.050;13.678;2022-09-17T04:39:47;98931.00;;;10.76;83.53
49341;BME280;35209;51.050;13.678;2022-09-17T04:44:49;98937.09;;;10.77;84.61
49341;BME280;35209;51.050;13.678;2022-09-17T04:49:50;98936.63;;;10.69;85.96
49341;BME280;35209;51.050;13.678;2022-09-17T04:54:52;98925.78;;;10.57;87.02
49341;BME280;35209;51.050;13.678;2022-09-17T04:59:54;98934.22;;;10.64;87.57
49341;BME280;35209;51.050;13.678;2022-09-17T05:04:55;98935.69;;;10.70;87.97
49341;BME280;35209;51.050;13.678;2022-09-17T05:09:57;98939.34;;;10.67;88.19
49341;BME280;35209;51.050;13.678;2022-09-17T05:14:58;98942.25;;;10.61;90.10
49341;BME280;35209;51.050;13.678;2022-09-17T05:20:00;98946.66;;;10.60;90.80
49341;BME280;35209;51.050;13.678;2022-09-17T05:25:02;98961.69;;;10.58;92.73
49341;BME280;35209;51.050;13.678;2022-09-17T05:30:04;98954.41;;;10.64;92.44
49341;BME280;35209;51.050;13.678;2022-09-17T05:35:07;98965.78;;;10.64;93.29
49341;BME280;35209;51.050;13.678;2022-09-17T05:40:09;98968.66;;;10.77;91.79
49341;BME280;35209;51.050;13.678;2022-09-17T05:45:11;98964.00;;;10.82;91.33
49341;BME280;35209;51.050;13.678;2022-09-17T05:50:13;98959.28;;;10.89;91.11
49341;BME280;35209;51.050;13.678;2022-09-17T05:55:15;98971.28;;;10.94;92.06
49341;BME280;35209;51.050;13.678;2022-09-17T06:00:17;98962.78;;;10.89;93.91
49341;BME280;35209;51.050;13.678;2022-09-17T06:05:19;98959.97;;;10.92;94.06
49341;BME280;35209;51.050;13.678;2022-09-17T06:10:21;98960.13;;;11.06;93.78
49341;BME280;35209;51.050;13.678;2022-09-17T06:15:22;98963.88;;;11.02;94.19
49341;BME280;35209;51.050;13.678;2022-09-17T06:20:24;98976.13;;;11.19;93.70
49341;BME280;35209;51.050;13.678;2022-09-17T06:25:26;98970.66;;;11.06;94.92
49341;BME280;35209;51.050;13.678;2022-09-17T06:30:28;98976.13;;;11.02;95.59
49341;BME280;35209;51.050;13.678;2022-09-17T06:35:30;98977.69;;;11.06;94.65
49341;BME280;35209;51.050;13.678;2022-09-17T06:40:31;98970.50;;;11.09;96.59
49341;BME280;35209;51.050;13.678;2022-09-17T06:45:33;98970.59;;;11.25;96.90
49341;BME280;35209;51.050;13.678;2022-09-17T06:50:35;98976.00;;;11.22;97.35
49341;BME280;35209;51.050;13.678;2022-09-17T06:55:42;98968.25;;;11.19;98.28
49341;BME280;35209;51.050;13.678;2022-09-17T07:00:44;98968.47;;;11.15;99.14
49341;BME280;35209;51.050;13.678;2022-09-17T07:05:46;98970.13;;;11.17;100.00
49341;BME280;35209;51.050;13.678;2022-09-17T07:10:48;98964.41;;;11.09;100.00
49341;BME280;35209;51.050;13.678;2022-09-17T07:15:57;98975.22;;;11.20;100.00
49341;BME280;35209;51.050;13.678;2022-09-17T07:21:04;98975.91;;;11.06;100.00
49341;BME280;35209;51.050;13.678;2022-09-17T07:26:11;98980.25;;;11.07;100.00
49341;BME280;35209;51.050;13.678;2022-09-17T07:31:13;98986.28;;;10.92;100.00
49341;BME280;35209;51.050;13.678;2022-09-17T07:36:17;98994.03;;;11.13;100.00
49341;BME280;35209;51.050;13.678;2022-09-17T07:41:18;98997.88;;;11.05;100.00
49341;BME280;35209;51.050;13.678;2022-09-17T07:46:20;99002.53;;;11.35;100.00
49341;BME280;35209;51.050;13.678;2022-09-17T07:51:24;99013.28;;;11.48;100.00
49341;BME280;35209;51.050;13.678;2022-09-17T07:56:26;99014.41;;;11.59;100.00
49341;BME280;35209;51.050;13.678;2022-09-17T08:01:28;99031.25;;;11.73;98.48
49341;BME280;35209;51.050;13.678;2022-09-17T08:06:30;99037.78;;;11.83;97.32
49341;BME280;35209;51.050;13.678;2022-09-17T08:11:31;99049.28;;;11.80;95.66
49341;BME280;35209;51.050;13.678;2022-09-17T08:16:53;99062.44;;;11.98;94.58
49341;BME280;35209;51.050;13.678;2022-09-17T08:21:55;99050.88;;;12.18;94.46
49341;BME280;35209;51.050;13.678;2022-09-17T08:26:57;99053.06;;;12.25;94.44
49341;BME280;35209;51.050;13.678;2022-09-17T08:31:58;99050.97;;;12.32;91.72
49341;BME280;35209;51.050;13.678;2022-09-17T08:37:00;99069.06;;;12.38;88.95
49341;BME280;35209;51.050;13.678;2022-09-17T08:42:26;99083.69;;;12.28;85.37
49341;BME280;35209;51.050;13.678;2022-09-17T08:47:37;99091.03;;;12.54;84.41
49341;BME280;35209;51.050;13.678;2022-09-17T09:08:55;99085.91;;;12.99;79.04
49341;BME280;35209;51.050;13.678;2022-09-17T09:19:23;99072.88;;;12.96;74.83
49341;BME280;35209;51.050;13.678;2022-09-17T09:24:40;99078.16;;;13.11;76.47
49341;BME280;35209;51.050;13.678;2022-09-17T09:30:02;99079.19;;;13.55;73.36
49341;BME280;35209;51.050;13.678;2022-09-17T09:35:17;99081.53;;;13.59;71.63
49341;BME280;35209;51.050;13.678;2022-09-17T09:40:45;99093.53;;;13.65;71.09
49341;BME280;35209;51.050;13.678;2022-09-17T09:51:16;99087.13;;;13.69;70.94
49341;BME280;35209;51.050;13.678;2022-09-17T09:56:47;99084.22;;;13.44;73.81
49341;BME280;35209;51.050;13.678;2022-09-17T10:01:53;99089.50;;;13.44;72.23
49341;BME280;35209;51.050;13.678;2022-09-17T10:07:07;99083.94;;;13.48;70.07
49341;BME280;35209;51.050;13.678;2022-09-17T10:17:24;99113.72;;;12.57;76.77
49341;BME280;35209;51.050;13.678;2022-09-17T10:22:30;99109.13;;;12.11;81.42
49341;BME280;35209;51.050;13.678;2022-09-17T10:27:33;99109.69;;;12.18;85.07
49341;BME280;35209;51.050;13.678;2022-09-17T10:32:37;99110.56;;;12.50;80.43
49341;BME280;35209;51.050;13.678;2022-09-17T10:37:47;99102.22;;;13.37;81.56
49341;BME280;35209;51.050;13.678;2022-09-17T10:43:14;99099.50;;;13.38;77.37
49341;BME280;35209;51.050;13.678;2022-09-17T10:48:16;99094.31;;;13.21;80.63
49341;BME280;35209;51.050;13.678;2022-09-17T10:53:19;99103.69;;;13.57;80.80
49341;BME280;35209;51.050;13.678;2022-09-17T11:09:28;99093.88;;;14.18;69.40
49341;BME280;35209;51.050;13.678;2022-09-17T11:14:58;99090.25;;;13.46;73.38
49341;BME280;35209;51.050;13.678;2022-09-17T11:25:36;99078.53;;;13.80;74.21
49341;BME280;35209;51.050;13.678;2022-09-17T11:30:52;99065.13;;;14.69;70.52
49341;BME280;35209;51.050;13.678;2022-09-17T11:35:58;99064.50;;;14.92;67.84
49341;BME280;35209;51.050;13.678;2022-09-17T11:41:28;99095.66;;;14.31;61.75
49341;BME280;35209;51.050;13.678;2022-09-17T11:46:36;99112.78;;;13.21;67.49
49341;BME280;35209;51.050;13.678;2022-09-17T11:51:55;99118.25;;;13.02;70.06
49341;BME280;35209;51.050;13.678;2022-09-17T11:57:15;99116.19;;;12.92;72.29
49341;BME280;35209;51.050;13.678;2022-09-17T12:07:30;99115.53;;;13.50;71.63
49341;BME280;35209;51.050;13.678;2022-09-17T12:12:38;99115.53;;;13.50;70.97
49341;BME280;35209;51.050;13.678;2022-09-17T12:23:36;99099.34;;;13.56;74.52
49341;BME280;35209;51.050;13.678;2022-09-17T12:33:49;99085.09;;;13.58;75.19
49341;BME280;35209;51.050;13.678;2022-09-17T12:39:08;99070.94;;;14.18;71.65
49341;BME280;35209;51.050;13.678;2022-09-17T12:49:35;99055.53;;;14.53;69.18
49341;BME280;35209;51.050;13.678;2022-09-17T13:00:09;99037.03;;;14.53;66.49
49341;BME280;35209;51.050;13.678;2022-09-17T13:16:36;99054.50;;;14.27;66.39
49341;BME280;35209;51.050;13.678;2022-09-17T13:21:57;99078.66;;;13.48;71.59
49341;BME280;35209;51.050;13.678;2022-09-17T13:27:01;99075.88;;;12.74;72.08
49341;BME280;35209;51.050;13.678;2022-09-17T13:32:04;99073.66;;;12.82;73.13
49341;BME280;35209;51.050;13.678;2022-09-17T13:37:18;99053.94;;;12.89;75.07
49341;BME280;35209;51.050;13.678;2022-09-17T13:42:27;99045.06;;;13.36;71.93
49341;BME280;35209;51.050;13.678;2022-09-17T13:47:53;99045.38;;;13.90;67.78
49341;BME280;35209;51.050;13.678;2022-09-17T13:52:59;99037.88;;;14.11;64.48
49341;BME280;35209;51.050;13.678;2022-09-17T13:58:33;99039.50;;;14.13;58.59
49341;BME280;35209;51.050;13.678;2022-09-17T14:13:44;99026.19;;;14.15;59.81
49341;BME280;35209;51.050;13.678;2022-09-17T14:18:55;99015.72;;;14.13;59.88
49341;BME280;35209;51.050;13.678;2022-09-17T14:24:01;99007.88;;;14.26;58.65
49341;BME280;35209;51.050;13.678;2022-09-17T14:34:44;99003.25;;;14.16;58.80
49341;BME280;35209;51.050;13.678;2022-09-17T14:39:47;99013.53;;;14.20;56.74
49341;BME280;35209;51.050;13.678;2022-09-17T14:44:59;99018.28;;;14.01;57.79
49341;BME280;35209;51.050;13.678;2022-09-17T14:50:24;99019.97;;;14.02;58.43
49341;BME280;35209;51.050;13.678;2022-09-17T14:55:30;99014.31;;;13.94;55.91
49341;BME280;35209;51.050;13.678;2022-09-17T15:00:34;99004.13;;;13.73;57.77
49341;BME280;35209;51.050;13.678;2022-09-17T15:05:38;98999.97;;;13.55;57.96
49341;BME280;35209;51.050;13.678;2022-09-17T15:11:00;98993.19;;;13.79;58.04
49341;BME280;35209;51.050;13.678;2022-09-17T15:16:05;98990.06;;;14.01;57.07
49341;BME280;35209;51.050;13.678;2022-09-17T15:21:40;98980.56;;;14.40;55.82
49341;BME280;35209;51.050;13.678;2022-09-17T15:26:48;98982.34;;;14.54;55.32
49341;BME280;35209;51.050;13.678;2022-09-17T15:31:51;98978.84;;;14.53;53.22
49341;BME280;35209;51.050;13.678;2022-09-17T15:37:20;98982.25;;;14.41;51.18
49341;BME280;35209;51.050;13.678;2022-09-17T15:42:27;98998.59;;;14.33;51.28
49341;BME280;35209;51.050;13.678;2022-09-17T15:47:36;99006.00;;;14.14;52.65
49341;BME280;35209;51.050;13.678;2022-09-17T15:52:49;99005.88;;;14.16;54.43
49341;BME280;35209;51.050;13.678;2022-09-17T15:57:52;98999.56;;;14.18;51.92
49341;BME280;35209;51.050;13.678;2022-09-17T16:02:53;99008.34;;;13.76;53.57
49341;BME280;35209;51.050;13.678;2022-09-17T16:08:16;99004.88;;;13.75;53.41
49341;BME280;35209;51.050;13.678;2022-09-17T16:13:18;99005.16;;;13.85;51.08
49341;BME280;35209;51.050;13.678;2022-09-17T16:18:20;99002.50;;;13.56;52.73
49341;BME280;35209;51.050;13.678;2022-09-17T16:23:21;98998.53;;;13.49;53.14
49341;BME280;35209;51.050;13.678;2022-09-17T16:28:23;98996.16;;;13.30;53.44
49341;BME280;35209;51.050;13.678;2022-09-17T16:33:25;99002.94;;;13.19;54.68
49341;BME280;35209;51.050;13.678;2022-09-17T16:38:28;99007.72;;;13.28;54.34
49341;BME280;35209;51.050;13.678;2022-09-17T16:43:30;99003.78;;;13.35;54.58
49341;BME280;35209;51.050;13.678;2022-09-17T16:48:34;99019.00;;;13.16;56.07
49341;BME280;35209;51.050;13.678;2022-09-17T16:53:36;99024.97;;;13.03;59.00
49341;BME280;35209;51.050;13.678;2022-09-17T16:58:37;99042.44;;;12.90;59.75
49341;BME280;35209;51.050;13.678;2022-09-17T17:03:40;99037.44;;;12.85;59.77
49341;BME280;35209;51.050;13.678;2022-09-17T17:08:42;99046.44;;;12.66;58.43
49341;BME280;35209;51.050;13.678;2022-09-17T17:13:44;99036.94;;;12.31;59.02
49341;BME280;35209;51.050;13.678;2022-09-17T17:18:45;99038.97;;;12.26;59.32
49341;BME280;35209;51.050;13.678;2022-09-17T17:23:47;99036.75;;;12.34;58.24
49341;BME280;35209;51.050;13.678;2022-09-17T17:28:49;99041.88;;;12.53;56.08
49341;BME280;35209;51.050;13.678;2022-09-17T17:33:51;99051.03;;;12.30;57.45
49341;BME280;35209;51.050;13.678;2022-09-17T17:38:59;99062.91;;;12.22;58.02
49341;BME280;35209;51.050;13.678;2022-09-17T17:44:01;99066.97;;;12.11;58.11
49341;BME280;35209;51.050;13.678;2022-09-17T17:49:03;99069.34;;;12.00;58.93
49341;BME280;35209;51.050;13.678;2022-09-17T17:54:05;99074.16;;;11.92;59.14
49341;BME280;35209;51.050;13.678;2022-09-17T17:59:06;99080.69;;;11.85;60.05
49341;BME280;35209;51.050;13.678;2022-09-17T18:04:08;99084.53;;;11.78;60.63
49341;BME280;35209;51.050;13.678;2022-09-17T18:09:10;99083.25;;;11.69;59.92
49341;BME280;35209;51.050;13.678;2022-09-17T18:14:12;99087.66;;;11.51;60.71
49341;BME280;35209;51.050;13.678;2022-09-17T18:19:14;99089.81;;;11.43;60.75
49341;BME280;35209;51.050;13.678;2022-09-17T18:24:15;99092.91;;;11.34;61.59
49341;BME280;35209;51.050;13.678;2022-09-17T18:29:17;99092.31;;;11.29;62.01
49341;BME280;35209;51.050;13.678;2022-09-17T18:34:19;99088.03;;;11.26;62.31
49341;BME280;35209;51.050;13.678;2022-09-17T18:39:20;99095.34;;;11.02;63.62
49341;BME280;35209;51.050;13.678;2022-09-17T18:44:42;99096.22;;;11.03;63.70
49341;BME280;35209;51.050;13.678;2022-09-17T18:49:44;99098.78;;;10.85;64.35
49341;BME280;35209;51.050;13.678;2022-09-17T18:54:46;99106.09;;;10.79;64.61
49341;BME280;35209;51.050;13.678;2022-09-17T18:59:47;99107.13;;;10.76;65.71
49341;BME280;35209;51.050;13.678;2022-09-17T19:04:49;99113.13;;;10.78;65.69
49341;BME280;35209;51.050;13.678;2022-09-17T19:09:50;99117.47;;;10.79;65.73
49341;BME280;35209;51.050;13.678;2022-09-17T19:14:52;99107.34;;;10.72;67.13
49341;BME280;35209;51.050;13.678;2022-09-17T19:19:54;99112.44;;;10.75;67.02
49341;BME280;35209;51.050;13.678;2022-09-17T19:24:56;99106.91;;;10.81;68.73
49341;BME280;35209;51.050;13.678;2022-09-17T19:29:58;99101.69;;;10.79;68.28
49341;BME280;35209;51.050;13.678;2022-09-17T19:35:00;99103.63;;;10.76;68.76
49341;BME280;35209;51.050;13.678;2022-09-17T19:40:03;99105.34;;;10.77;68.21
49341;BME280;35209;51.050;13.678;2022-09-17T19:45:06;99112.78;;;10.86;68.50
49341;BME280;35209;51.050;13.678;2022-09-17T19:50:08;99103.03;;;10.88;69.73
49341;BME280;35209;51.050;13.678;2022-09-17T19:55:10;99096.66;;;10.75;71.72
49341;BME280;35209;51.050;13.678;2022-09-17T20:00:14;99094.63;;;10.63;73.93
49341;BME280;35209;51.050;13.678;2022-09-17T20:05:16;99098.53;;;10.54;75.82
49341;BME280;35209;51.050;13.678;2022-09-17T20:10:18;99107.19;;;10.37;78.57
49341;BME280;35209;51.050;13.678;2022-09-17T20:15:19;99113.38;;;10.36;79.37
49341;BME280;35209;51.050;13.678;2022-09-17T20:20:21;99115.06;;;10.17;79.97
49341;BME280;35209;51.050;13.678;2022-09-17T20:25:28;99110.09;;;10.10;81.76
49341;BME280;35209;51.050;13.678;2022-09-17T20:30:30;99108.00;;;9.98;82.89
49341;BME280;35209;51.050;13.678;2022-09-17T20:35:34;99102.53;;;9.84;82.86
49341;BME280;35209;51.050;13.678;2022-09-17T20:40:36;99101.78;;;9.80;83.13
49341;BME280;35209;51.050;13.678;2022-09-17T20:45:37;99094.19;;;9.74;85.25
49341;BME280;35209;51.050;13.678;2022-09-17T20:50:39;99091.28;;;9.60;88.77
49341;BME280;35209;51.050;13.678;2022-09-17T20:55:41;99073.94;;;9.57;88.56
49341;BME280;35209;51.050;13.678;2022-09-17T21:00:42;99070.16;;;9.43;92.69
49341;BME280;35209;51.050;13.678;2022-09-17T21:05:44;99072.56;;;9.49;90.15
49341;BME280;35209;51.050;13.678;2022-09-17T21:10:46;99067.50;;;9.44;90.44
49341;BME280;35209;51.050;13.678;2022-09-17T21:15:58;99074.72;;;9.39;91.08
49341;BME280;35209;51.050;13.678;2022-09-17T21:21:05;99068.09;;;9.51;88.53
49341;BME280;35209;51.050;13.678;2022-09-17T21:26:13;99070.31;;;9.60;89.70
49341;BME280;35209;51.050;13.678;2022-09-17T21:31:24;99078.38;;;9.55;89.40
49341;BME280;35209;51.050;13.678;2022-09-17T21:36:34;99073.31;;;9.51;88.91
49341;BME280;35209;51.050;13.678;2022-09-17T21:41:36;99062.84;;;9.51;88.52
49341;BME280;35209;51.050;13.678;2022-09-17T21:46:43;99067.56;;;9.63;85.52
49341;BME280;35209;51.050;13.678;2022-09-17T21:51:45;99073.66;;;9.64;85.01
49341;BME280;35209;51.050;13.678;2022-09-17T21:56:46;99068.69;;;9.57;87.24
49341;BME280;35209;51.050;13.678;2022-09-17T22:01:48;99076.47;;;9.59;88.93
49341;BME280;35209;51.050;13.678;2022-09-17T22:06:51;99062.25;;;9.44;90.32
49341;BME280;35209;51.050;13.678;2022-09-17T22:11:53;99057.94;;;9.43;89.25
49341;BME280;35209;51.050;13.678;2022-09-17T22:16:55;99054.44;;;9.43;89.42
49341;BME280;35209;51.050;13.678;2022-09-17T22:21:57;99048.41;;;9.41;89.44
49341;BME280;35209;51.050;13.678;2022-09-17T22:26:59;99050.91;;;9.44;88.03
49341;BME280;35209;51.050;13.678;2022-09-17T22:32:01;99038.66;;;9.44;87.14
49341;BME280;35209;51.050;13.678;2022-09-17T22:37:03;99028.09;;;9.46;87.61
49341;BME280;35209;51.050;13.678;2022-09-17T22:42:06;99043.91;;;9.44;87.50
49341;BME280;35209;51.050;13.678;2022-09-17T22:47:08;99033.81;;;9.35;90.79
49341;BME280;35209;51.050;13.678;2022-09-17T22:52:09;99042.56;;;9.14;95.78
49341;BME280;35209;51.050;13.678;2022-09-17T22:57:11;99046.50;;;9.03;97.45
49341;BME280;35209;51.050;13.678;2022-09-17T23:02:12;99049.91;;;9.05;98.19
49341;BME280;35209;51.050;13.678;2022-09-17T23:07:14;99054.38;;;9.03;98.67
49341;BME280;35209;51.050;13.678;2022-09-17T23:12:16;99046.91;;;8.93;100.00
49341;BME280;35209;51.050;13.678;2022-09-17T23:17:17;99050.09;;;9.01;99.35
49341;BME280;35209;51.050;13.678;2022-09-17T23:22:19;99044.38;;;8.91;100.00
49341;BME280;35209;51.050;13.678;2022-09-17T23:27:23;99042.59;;;8.92;100.00
49341;BME280;35209;51.050;13.678;2022-09-17T23:32:25;99036.41;;;8.94;100.00
49341;BME280;35209;51.050;13.678;2022-09-17T23:37:26;99036.56;;;8.90;100.00
49341;BME280;35209;51.050;13.678;2022-09-17T23:42:28;99025.91;;;8.94;100.00
49341;BME280;35209;51.050;13.678;2022-09-17T23:47:30;99023.88;;;9.01;100.00
49341;BME280;35209;51.050;13.678;2022-09-17T23:52:32;99018.34;;;9.07;100.00
49341;BME280;35209;51.050;13.678;2022-09-17T23:57:33;99011.72;;;8.98;100.00
